Alexandria, KY (41001)

4:19 PM EDT on August 28, 2016 (GMT -0400)
Claryville,KY | | Change Station
Active Advisory: Heat Advisory

Elev 680 ft 38.91 °N, 84.41 °W | Updated 11 seconds ago

Scattered Clouds
Scattered Clouds
92.8 °F
Feels Like 108 °F
N
0.4
Wind Variable Wind from SE
Gusts 2.5 mph

Today
High -- | Low -- °F
--% Chance of Precip.
Yesterday
High -- | Low -- °F
Precip. -- in
Pressure 30.13 in
Visibility 10.0 miles
Clouds Scattered Clouds 3500 ft
Heat Index 108 °F
Dew Point 78 °F
Humidity 61%
Rainfall 0.00 in
Snow Depth Not available.
7:03 AM 8:13 PM
Waning Crescent, 13% visible
METAR KLUK 281953Z VRB03KT 10SM SCT035 33/23 A3013
Pressure 30.13 in
Visibility 10.0 miles
Clouds Scattered Clouds 3500 ft
Heat Index 108 °F
Dew Point 78 °F
Humidity 61%
Rainfall 0.00 in
Snow Depth Not available.
7:03 AM 8:13 PM
Waning Crescent, 13% visible
METAR KLUK 281953Z VRB03KT 10SM SCT035 33/23 A3013

10-Day Weather Forecast

Almanac

Astronomy

Aug. 28, 2016 Rise Set
Actual Time
Civil Twilight
Nautical Twilight
Astronomical Twilight
Moon
Length of Visible Light
Length of Day
Tomorrow will be .
, % of the Moon is Illuminated

Today's Extremes

State Highs State Lows

Community

WunderPhotos

Upload Photos

1,935,677 photos uploaded!

WunderBlog® & News

Nearby

Air Quality

  Air Quality AQ Index Pollutant
Not available.

Snow Depth

Station Depth Elevation

Earthquake Activity

City Distance Mag. Time & Date
Minimum magnitude displayed is 2.5.

Coastal Water Temperatures

Place Temperature

Stations

Nearby Weather Stations

Station Location Temp. Windchill Dew Point Humidity Wind Precip. Elev Updated Type
                   

Watches & Warnings

Heat Advisory
Issued: 3:54 PM EDT Aug. 28, 2016 – National Weather Service

... Heat advisory remains in effect until 9 PM EDT this evening...

* heat index values... up to 101 due to temperatures in the lower
90s... and dewpoints in the lower 70s.

* Timing... rest of this afternoon into early evening.

* Impacts... heat stroke... heat exhaustion and other heat
related illnesses will be possible... especially if you spend a
significant amount of time outdoors... or are involved in any
strenuous outdoor activity.

Precautionary/preparedness actions...

Reduce outdoor activities... especially from mid-morning through
the afternoon. Wear light weight and loose fitting clothing and
drink plenty of water. If possible... spend more time in air
conditioned or well ventilated places.